Nearby METAR Reports

 

KDVT - Phoenix/Deer Vly, Arizona, USA
Distance from station: SW 14mi, 22km
Updated: 2021-01-22 12:17
Overcast
Overcast
 Wind from S
Wind: S 10 mph , 17 km/h
Temperature: 61°F , 16°C
Dew Point: 50°F , 10°C
Humidity: 68%
Barometer: 29.99 inHg , 1015.6 hPa
Clouds: Overcast
Visibility: 10 miles , 16 km
Cloud details: Partly cloudy 2800 ft
Mostly cloudy 7000 ft
Overcast 9500 ft
2021/01/22 19:17 KDVT 221917Z 18009KT 10SM SCT028 BKN070 OVC095 16/10 A2999 RMK AO2 T01610100
KSDL - Scottsdale, Arizona, USA
Distance from station: S 15mi, 23km
Updated: 2021-01-22 11:53
NOT Current
Mostly cloudy
Mostly cloudy
 Wind from SSE
Wind: SSE 12 mph , 19 km/h
Temperature: 63°F , 17°C
Dew Point: 48°F , 9°C
Humidity: 59%
Barometer: 30.01 inHg , 1016.3 hPa
Clouds: Mostly cloudy
Visibility: 10 miles , 16 km
Cloud details: Mostly cloudy 9000 ft
2021/01/22 18:53 KSDL 221853Z 16010KT 10SM BKN090 17/09 A3001 RMK AO2 SLP149 T01720094
KFFZ - Mesa/Falcon Fld, Arizona, USA
Distance from station: SSE 27mi, 44km
Updated: 2021-01-22 12:23
Partly cloudy
Partly cloudy
 Wind from S
Wind: S 6 mph , 9 km/h
Temperature: 63°F , 17°C
Dew Point: 46°F , 8°C
Humidity: 56%
Barometer: 29.98 inHg , 1015.2 hPa
Clouds: Partly cloudy
Visibility: 10 miles , 16 km
Cloud details: Partly cloudy 2300 ft
2021/01/22 19:23 KFFZ 221923Z 19005KT 10SM SCT023 17/08 A2998 RMK AO2 T01720083
 
KPHX - Phoenix/Sky Hrbr, Arizona, USA
Distance from station: SSW 28mi, 45km
Updated: 2021-01-22 11:51
NOT Current
Mostly cloudy
Mostly cloudy
 Wind from SSE
Wind: SSE 6 mph , 9 km/h
Temperature: 63°F , 17°C
Dew Point: 48°F , 9°C
Humidity: 59%
Barometer: 29.99 inHg , 1015.6 hPa
Clouds: Mostly cloudy
Visibility: 10 miles , 16 km
Cloud details: Few Clouds 3700 ft
Partly cloudy 5500 ft
Mostly cloudy 9000 ft
2021/01/22 18:51 KPHX 221851Z 15005KT 10SM FEW037 SCT055 BKN090 17/09 A2999 RMK AO2 SLP147 SCSL DSNT SW AND NW T01670089
KLUF - Luke Afb/Glendal, Arizona, USA
Distance from station: SW 34mi, 55km
Updated: 2021-01-20 11:56
NOT Current
Overcast
Overcast
 Wind from E
Wind: E 14 mph , 22 km/h
Temperature: 70°F , 21°C
Dew Point: 36°F , 2°C
Humidity: 29%
Barometer: 30.09 inHg , 1019 hPa
Clouds: Overcast
Visibility: 10 miles , 16 km
Cloud details: Overcast 19000 ft
2021/01/20 18:56 KLUF 201856Z AUTO 08012KT 10SM OVC190 21/02 A3009 RMK AO2 SLP183 T02100018 $
KGYR - Goodyear Municip, Arizona, USA
Distance from station: SW 39mi, 63km
Updated: 2021-01-22 11:47
NOT Current
Overcast
Overcast
 Wind from calm
Wind: Calm
Temperature: 61°F , 16°C
Dew Point: 54°F , 12°C
Humidity: 77%
Barometer: 30.02 inHg , 1016.6 hPa
Clouds: Overcast
Visibility: 10 miles , 16 km
Cloud details: Partly cloudy 2500 ft
Mostly cloudy 3500 ft
Overcast 6000 ft
2021/01/22 18:47 KGYR 221847Z 00000KT 10SM SCT025 BKN035 OVC060 16/12 A3002
 
KIWA - Chandler/Mesa, Arizona, USA
Distance from station: SSE 39mi, 63km
Updated: 2021-01-22 11:55
NOT Current
Partly cloudy
Partly cloudy
 Wind from S
Wind: S 9 mph , 15 km/h
Temperature: 63°F , 17°C
Dew Point: 46°F , 8°C
Humidity: 56%
Barometer: 30.02 inHg , 1016.6 hPa
Clouds: Partly cloudy
Visibility: 10 miles , 16 km
Cloud details: Partly cloudy 11000 ft
2021/01/22 18:55 KIWA 221855Z 19008KT 10SM SCT110 17/08 A3002
KPAN - Payson, Arizona, USA
Distance from station: NE 44mi, 70km
Updated: 2021-01-22 12:15
Mostly cloudy
Mostly cloudy
 Wind from varies
Wind: varies 7 mph , 11 km/h, Gust: 16 mph , 26 km/h
Temperature: 48°F , 9°C
Wind Chill: 45°F , 7°C
Dew Point: 39°F , 4°C
Humidity: 71%
Barometer: 30.04 inHg , 1017.3 hPa
Clouds: Mostly cloudy
Visibility: 10 miles , 16 km
Cloud details: Few Clouds 1400 ft
Partly cloudy 2700 ft
Mostly cloudy 3300 ft
2021/01/22 19:15 KPAN 221915Z AUTO VRB06G14KT 10SM FEW014 SCT027 BKN033 09/04 A3004 RMK AO2
KBXK - Buckeye, Arizona, USA
Distance from station: WSW 53mi, 86km
Updated: 2020-12-28 02:35
NOT Current

 
Barometer: 29.81 inHg , 1009.5 hPa
2020/12/28 09:35 KBXK 280935Z AUTO A2981 RMK A01
 
KA39 - Maricopa Ak-Chin, Arizona, USA
Distance from station: S 58mi, 94km
Updated: 2021-01-22 12:15
Mostly cloudy
Mostly cloudy
 Wind from S
Wind: S 9 mph , 15 km/h
Temperature: 63°F , 17°C
Dew Point: 48°F , 9°C
Humidity: 59%
Barometer: 30.04 inHg , 1017.3 hPa
Clouds: Mostly cloudy
Visibility: 10 miles , 16 km
Cloud details: Mostly cloudy 7500 ft
2021/01/22 19:15 KA39 221915Z AUTO 17008KT 10SM BKN075 17/09 A3004 RMK AO2
KPRC - Prescott, Arizona, USA
Distance from station: NNW 64mi, 103km
Updated: 2021-01-22 11:53
NOT Current
Mostly cloudy
Mostly cloudy
 Wind from SSW
Wind: SSW 13 mph , 20 km/h
Temperature: 48°F , 9°C
Wind Chill: 43°F , 6°C
Dew Point: 37°F , 3°C
Humidity: 66%
Barometer: 30.01 inHg , 1016.3 hPa
Clouds: Mostly cloudy
Visibility: 10 miles , 16 km
Cloud details: Partly cloudy 700 ft
Mostly cloudy 5500 ft
2021/01/22 18:53 KPRC 221853Z 20011KT 10SM SCT007 BKN055 09/03 A3001 RMK AO2 SLP132 T00890033 $
KSEZ - Sedona, Arizona, USA
Distance from station: N 71mi, 114km
Updated: 2021-01-22 12:15
Rain, Overcast
Rain, Overcast
 Wind from SSE
Wind: SSE 6 mph , 9 km/h
Temperature: 46°F , 8°C
Wind Chill: 43°F , 6°C
Dew Point: 45°F , 7°C
Humidity: 93%
Barometer: 30.02 inHg , 1016.6 hPa
Summary: Rain
Clouds: Overcast
Visibility: 7 miles , 11 km
Cloud details: Partly cloudy 600 ft
Mostly cloudy 1000 ft
Overcast 3300 ft
2021/01/22 19:15 KSEZ 221915Z AUTO 16005KT 7SM RA SCT006 BKN010 OVC033 08/07 A3002 RMK AO2
 
KFLG - Flagstaff, Arizona, USA
Distance from station: N 91mi, 147km
Updated: 2021-01-22 12:20
Light rain, Mist, Overcast
Light rain, Mist, Overcast
 Wind from SW
Wind: SW 14 mph , 22 km/h
Temperature: 36°F , 2°C
Wind Chill: 27°F , -3°C
Dew Point: 34°F , 1°C
Humidity: 93%
Barometer: 30.00 inHg , 1015.9 hPa
Summary: Light rain, Mist
Clouds: Overcast
Visibility: 4 miles , 6 km
Cloud details: Few Clouds 700 ft
Overcast 1400 ft
2021/01/22 19:20 KFLG 221920Z 22012KT 4SM -RA BR FEW007 OVC014 02/01 A3000 RMK AO2 RAB07 P0000 T00220011